sensor_id;sensor_type;location;lat;lon;timestamp;P1;durP1;ratioP1;P2;durP2;ratioP2
43817;SDS011;29868;47.360;18.984;2023-11-21T00:02:24;29.25;;;20.70;;
43817;SDS011;29868;47.360;18.984;2023-11-21T00:04:50;31.60;;;21.23;;
43817;SDS011;29868;47.360;18.984;2023-11-21T00:07:15;38.63;;;24.10;;
43817;SDS011;29868;47.360;18.984;2023-11-21T00:09:41;31.48;;;22.08;;
43817;SDS011;29868;47.360;18.984;2023-11-21T00:12:07;70.72;;;48.72;;
43817;SDS011;29868;47.360;18.984;2023-11-21T00:14:36;95.28;;;42.20;;
43817;SDS011;29868;47.360;18.984;2023-11-21T00:17:03;75.93;;;35.30;;
43817;SDS011;29868;47.360;18.984;2023-11-21T00:19:30;58.03;;;33.22;;
43817;SDS011;29868;47.360;18.984;2023-11-21T00:21:56;36.35;;;23.15;;
43817;SDS011;29868;47.360;18.984;2023-11-21T00:24:23;34.35;;;22.15;;
43817;SDS011;29868;47.360;18.984;2023-11-21T00:26:49;32.20;;;22.15;;
43817;SDS011;29868;47.360;18.984;2023-11-21T00:29:15;29.27;;;19.73;;
43817;SDS011;29868;47.360;18.984;2023-11-21T00:31:42;30.25;;;20.20;;
43817;SDS011;29868;47.360;18.984;2023-11-21T00:34:08;32.33;;;20.45;;
43817;SDS011;29868;47.360;18.984;2023-11-21T00:36:34;32.22;;;20.58;;
43817;SDS011;29868;47.360;18.984;2023-11-21T00:39:00;30.42;;;20.08;;
43817;SDS011;29868;47.360;18.984;2023-11-21T00:41:25;29.73;;;20.58;;
43817;SDS011;29868;47.360;18.984;2023-11-21T00:43:53;32.80;;;21.70;;
43817;SDS011;29868;47.360;18.984;2023-11-21T00:46:19;35.53;;;21.70;;
43817;SDS011;29868;47.360;18.984;2023-11-21T00:48:44;34.47;;;22.20;;
43817;SDS011;29868;47.360;18.984;2023-11-21T00:51:10;32.95;;;22.27;;
43817;SDS011;29868;47.360;18.984;2023-11-21T00:53:35;34.13;;;22.30;;
43817;SDS011;29868;47.360;18.984;2023-11-21T00:56:00;31.27;;;21.25;;
43817;SDS011;29868;47.360;18.984;2023-11-21T00:58:26;32.78;;;20.38;;
43817;SDS011;29868;47.360;18.984;2023-11-21T01:00:52;32.20;;;20.65;;
43817;SDS011;29868;47.360;18.984;2023-11-21T01:03:18;34.10;;;20.77;;
43817;SDS011;29868;47.360;18.984;2023-11-21T01:05:44;32.00;;;21.33;;
43817;SDS011;29868;47.360;18.984;2023-11-21T01:08:10;29.33;;;19.75;;
43817;SDS011;29868;47.360;18.984;2023-11-21T01:10:36;33.10;;;20.65;;
43817;SDS011;29868;47.360;18.984;2023-11-21T01:13:02;31.25;;;21.20;;
43817;SDS011;29868;47.360;18.984;2023-11-21T01:15:30;34.17;;;20.13;;
43817;SDS011;29868;47.360;18.984;2023-11-21T01:17:55;28.23;;;20.80;;
43817;SDS011;29868;47.360;18.984;2023-11-21T01:20:20;31.90;;;21.15;;
43817;SDS011;29868;47.360;18.984;2023-11-21T01:22:46;34.55;;;21.98;;
43817;SDS011;29868;47.360;18.984;2023-11-21T01:25:14;32.22;;;22.55;;
43817;SDS011;29868;47.360;18.984;2023-11-21T01:27:41;40.17;;;24.23;;
43817;SDS011;29868;47.360;18.984;2023-11-21T01:30:06;39.78;;;24.77;;
43817;SDS011;29868;47.360;18.984;2023-11-21T01:32:38;39.38;;;24.83;;
43817;SDS011;29868;47.360;18.984;2023-11-21T01:35:04;34.42;;;23.35;;
43817;SDS011;29868;47.360;18.984;2023-11-21T01:37:31;36.78;;;24.52;;
43817;SDS011;29868;47.360;18.984;2023-11-21T01:39:58;33.35;;;22.55;;
43817;SDS011;29868;47.360;18.984;2023-11-21T01:42:24;34.83;;;23.50;;
43817;SDS011;29868;47.360;18.984;2023-11-21T01:44:49;36.75;;;24.42;;
43817;SDS011;29868;47.360;18.984;2023-11-21T01:47:15;41.95;;;26.75;;
43817;SDS011;29868;47.360;18.984;2023-11-21T01:49:44;122.60;;;77.30;;
43817;SDS011;29868;47.360;18.984;2023-11-21T01:52:11;70.90;;;42.08;;
43817;SDS011;29868;47.360;18.984;2023-11-21T01:54:37;62.47;;;38.40;;
43817;SDS011;29868;47.360;18.984;2023-11-21T01:57:03;47.88;;;31.13;;
43817;SDS011;29868;47.360;18.984;2023-11-21T01:59:34;49.97;;;31.77;;
43817;SDS011;29868;47.360;18.984;2023-11-21T02:02:02;48.45;;;29.13;;
43817;SDS011;29868;47.360;18.984;2023-11-21T02:04:34;40.65;;;27.50;;
43817;SDS011;29868;47.360;18.984;2023-11-21T02:07:01;40.17;;;27.92;;
43817;SDS011;29868;47.360;18.984;2023-11-21T02:09:30;38.42;;;26.65;;
43817;SDS011;29868;47.360;18.984;2023-11-21T02:11:58;36.67;;;24.67;;
43817;SDS011;29868;47.360;18.984;2023-11-21T02:14:24;40.42;;;26.02;;
43817;SDS011;29868;47.360;18.984;2023-11-21T02:16:51;35.75;;;24.40;;
43817;SDS011;29868;47.360;18.984;2023-11-21T02:19:19;37.55;;;24.45;;
43817;SDS011;29868;47.360;18.984;2023-11-21T02:21:47;45.75;;;29.17;;
43817;SDS011;29868;47.360;18.984;2023-11-21T02:24:16;51.15;;;31.20;;
43817;SDS011;29868;47.360;18.984;2023-11-21T02:26:43;48.35;;;30.90;;
43817;SDS011;29868;47.360;18.984;2023-11-21T02:29:08;54.55;;;34.38;;
43817;SDS011;29868;47.360;18.984;2023-11-21T02:31:37;46.92;;;30.73;;
43817;SDS011;29868;47.360;18.984;2023-11-21T02:34:10;48.72;;;31.65;;
43817;SDS011;29868;47.360;18.984;2023-11-21T02:36:38;47.65;;;30.73;;
43817;SDS011;29868;47.360;18.984;2023-11-21T02:39:03;47.88;;;30.63;;
43817;SDS011;29868;47.360;18.984;2023-11-21T02:41:29;47.40;;;30.98;;
43817;SDS011;29868;47.360;18.984;2023-11-21T02:43:54;43.72;;;30.15;;
43817;SDS011;29868;47.360;18.984;2023-11-21T02:46:20;45.03;;;28.60;;
43817;SDS011;29868;47.360;18.984;2023-11-21T02:48:45;44.13;;;28.88;;
43817;SDS011;29868;47.360;18.984;2023-11-21T02:51:11;41.55;;;27.20;;
43817;SDS011;29868;47.360;18.984;2023-11-21T02:53:36;40.88;;;27.20;;
43817;SDS011;29868;47.360;18.984;2023-11-21T02:56:03;38.60;;;27.40;;
43817;SDS011;29868;47.360;18.984;2023-11-21T02:58:29;38.33;;;26.60;;
43817;SDS011;29868;47.360;18.984;2023-11-21T03:00:55;39.78;;;26.58;;
43817;SDS011;29868;47.360;18.984;2023-11-21T03:03:21;37.55;;;25.95;;
43817;SDS011;29868;47.360;18.984;2023-11-21T03:05:48;36.05;;;25.23;;
43817;SDS011;29868;47.360;18.984;2023-11-21T03:08:14;36.28;;;24.77;;
43817;SDS011;29868;47.360;18.984;2023-11-21T03:10:39;37.95;;;24.85;;
43817;SDS011;29868;47.360;18.984;2023-11-21T03:13:05;36.28;;;24.42;;
43817;SDS011;29868;47.360;18.984;2023-11-21T03:15:30;34.40;;;23.98;;
43817;SDS011;29868;47.360;18.984;2023-11-21T03:17:57;38.08;;;24.77;;
43817;SDS011;29868;47.360;18.984;2023-11-21T03:20:23;37.45;;;24.15;;
43817;SDS011;29868;47.360;18.984;2023-11-21T03:22:48;36.05;;;24.75;;
43817;SDS011;29868;47.360;18.984;2023-11-21T03:25:14;34.33;;;23.75;;
43817;SDS011;29868;47.360;18.984;2023-11-21T03:27:42;34.67;;;24.00;;
43817;SDS011;29868;47.360;18.984;2023-11-21T03:30:09;33.72;;;24.35;;
43817;SDS011;29868;47.360;18.984;2023-11-21T03:32:36;35.03;;;23.40;;
43817;SDS011;29868;47.360;18.984;2023-11-21T03:35:01;34.28;;;23.33;;
43817;SDS011;29868;47.360;18.984;2023-11-21T03:37:27;34.38;;;23.17;;
43817;SDS011;29868;47.360;18.984;2023-11-21T03:39:53;32.00;;;22.27;;
43817;SDS011;29868;47.360;18.984;2023-11-21T03:42:20;34.97;;;23.00;;
43817;SDS011;29868;47.360;18.984;2023-11-21T03:44:45;31.92;;;21.50;;
43817;SDS011;29868;47.360;18.984;2023-11-21T03:47:11;32.78;;;23.10;;
43817;SDS011;29868;47.360;18.984;2023-11-21T03:49:37;30.23;;;21.60;;
43817;SDS011;29868;47.360;18.984;2023-11-21T03:52:03;31.65;;;21.83;;
43817;SDS011;29868;47.360;18.984;2023-11-21T03:54:28;30.48;;;21.65;;
43817;SDS011;29868;47.360;18.984;2023-11-21T03:56:54;30.00;;;21.33;;
43817;SDS011;29868;47.360;18.984;2023-11-21T03:59:19;31.98;;;20.85;;
43817;SDS011;29868;47.360;18.984;2023-11-21T04:01:44;29.75;;;21.48;;
43817;SDS011;29868;47.360;18.984;2023-11-21T04:04:10;36.30;;;22.88;;
43817;SDS011;29868;47.360;18.984;2023-11-21T04:06:35;31.00;;;21.92;;
43817;SDS011;29868;47.360;18.984;2023-11-21T04:09:02;32.70;;;21.42;;
43817;SDS011;29868;47.360;18.984;2023-11-21T04:11:29;32.17;;;22.80;;
43817;SDS011;29868;47.360;18.984;2023-11-21T04:13:55;31.88;;;21.77;;
43817;SDS011;29868;47.360;18.984;2023-11-21T04:16:20;32.60;;;21.98;;
43817;SDS011;29868;47.360;18.984;2023-11-21T04:18:46;36.15;;;23.17;;
43817;SDS011;29868;47.360;18.984;2023-11-21T04:21:11;37.42;;;23.95;;
43817;SDS011;29868;47.360;18.984;2023-11-21T04:23:37;33.45;;;23.25;;
43817;SDS011;29868;47.360;18.984;2023-11-21T04:26:02;35.42;;;22.98;;
43817;SDS011;29868;47.360;18.984;2023-11-21T04:28:28;32.92;;;23.23;;
43817;SDS011;29868;47.360;18.984;2023-11-21T04:30:53;34.33;;;22.10;;
43817;SDS011;29868;47.360;18.984;2023-11-21T04:33:18;34.80;;;23.23;;
43817;SDS011;29868;47.360;18.984;2023-11-21T04:35:44;31.48;;;21.73;;
43817;SDS011;29868;47.360;18.984;2023-11-21T04:38:09;34.40;;;23.77;;
43817;SDS011;29868;47.360;18.984;2023-11-21T04:40:35;37.67;;;22.63;;
43817;SDS011;29868;47.360;18.984;2023-11-21T04:43:00;35.42;;;23.33;;
43817;SDS011;29868;47.360;18.984;2023-11-21T04:45:26;35.95;;;23.45;;
43817;SDS011;29868;47.360;18.984;2023-11-21T04:47:52;37.78;;;23.63;;
43817;SDS011;29868;47.360;18.984;2023-11-21T04:50:17;36.78;;;24.05;;
43817;SDS011;29868;47.360;18.984;2023-11-21T04:52:43;40.60;;;24.55;;
43817;SDS011;29868;47.360;18.984;2023-11-21T04:55:08;38.72;;;25.70;;
43817;SDS011;29868;47.360;18.984;2023-11-21T04:57:35;40.40;;;25.33;;
43817;SDS011;29868;47.360;18.984;2023-11-21T05:00:01;37.17;;;24.95;;
43817;SDS011;29868;47.360;18.984;2023-11-21T05:02:30;38.20;;;24.60;;
43817;SDS011;29868;47.360;18.984;2023-11-21T05:04:56;38.78;;;27.15;;
43817;SDS011;29868;47.360;18.984;2023-11-21T05:07:22;45.17;;;31.20;;
43817;SDS011;29868;47.360;18.984;2023-11-21T05:09:47;41.78;;;30.10;;
43817;SDS011;29868;47.360;18.984;2023-11-21T05:12:13;42.13;;;28.23;;
43817;SDS011;29868;47.360;18.984;2023-11-21T05:14:39;43.33;;;27.58;;
43817;SDS011;29868;47.360;18.984;2023-11-21T05:17:05;40.65;;;26.48;;
43817;SDS011;29868;47.360;18.984;2023-11-21T05:19:30;38.88;;;26.63;;
43817;SDS011;29868;47.360;18.984;2023-11-21T05:21:56;39.22;;;27.05;;
43817;SDS011;29868;47.360;18.984;2023-11-21T05:24:21;39.33;;;26.20;;
43817;SDS011;29868;47.360;18.984;2023-11-21T05:26:47;38.03;;;25.70;;
43817;SDS011;29868;47.360;18.984;2023-11-21T05:29:12;40.40;;;26.63;;
43817;SDS011;29868;47.360;18.984;2023-11-21T05:31:37;40.85;;;26.70;;
43817;SDS011;29868;47.360;18.984;2023-11-21T05:34:03;41.78;;;27.23;;
43817;SDS011;29868;47.360;18.984;2023-11-21T05:36:30;41.25;;;26.45;;
43817;SDS011;29868;47.360;18.984;2023-11-21T05:38:55;50.42;;;29.65;;
43817;SDS011;29868;47.360;18.984;2023-11-21T05:41:21;53.60;;;30.23;;
43817;SDS011;29868;47.360;18.984;2023-11-21T05:43:46;46.67;;;29.17;;
43817;SDS011;29868;47.360;18.984;2023-11-21T05:46:12;48.42;;;26.98;;
43817;SDS011;29868;47.360;18.984;2023-11-21T05:48:38;42.80;;;27.70;;
43817;SDS011;29868;47.360;18.984;2023-11-21T05:51:04;43.22;;;26.90;;
43817;SDS011;29868;47.360;18.984;2023-11-21T05:53:31;43.00;;;26.75;;
43817;SDS011;29868;47.360;18.984;2023-11-21T05:55:56;40.33;;;25.85;;
43817;SDS011;29868;47.360;18.984;2023-11-21T05:58:22;40.65;;;25.48;;
43817;SDS011;29868;47.360;18.984;2023-11-21T06:00:48;35.42;;;23.98;;
43817;SDS011;29868;47.360;18.984;2023-11-21T06:03:13;32.92;;;23.05;;
43817;SDS011;29868;47.360;18.984;2023-11-21T06:05:39;32.65;;;23.27;;
43817;SDS011;29868;47.360;18.984;2023-11-21T06:08:04;35.30;;;22.48;;
43817;SDS011;29868;47.360;18.984;2023-11-21T06:10:31;34.15;;;22.65;;
43817;SDS011;29868;47.360;18.984;2023-11-21T06:12:57;33.83;;;21.95;;
43817;SDS011;29868;47.360;18.984;2023-11-21T06:15:23;31.52;;;21.17;;
43817;SDS011;29868;47.360;18.984;2023-11-21T06:17:48;32.55;;;22.02;;
43817;SDS011;29868;47.360;18.984;2023-11-21T06:20:17;30.70;;;21.30;;
43817;SDS011;29868;47.360;18.984;2023-11-21T06:22:44;32.55;;;21.35;;
43817;SDS011;29868;47.360;18.984;2023-11-21T06:25:10;31.95;;;20.50;;
43817;SDS011;29868;47.360;18.984;2023-11-21T06:27:42;30.02;;;20.00;;
43817;SDS011;29868;47.360;18.984;2023-11-21T06:30:09;28.67;;;20.13;;
43817;SDS011;29868;47.360;18.984;2023-11-21T06:32:37;30.08;;;20.52;;
43817;SDS011;29868;47.360;18.984;2023-11-21T06:35:03;31.20;;;20.80;;
43817;SDS011;29868;47.360;18.984;2023-11-21T06:37:30;32.40;;;20.88;;
43817;SDS011;29868;47.360;18.984;2023-11-21T06:39:57;28.67;;;19.70;;
43817;SDS011;29868;47.360;18.984;2023-11-21T06:42:23;28.52;;;17.77;;
43817;SDS011;29868;47.360;18.984;2023-11-21T06:44:49;26.13;;;17.52;;
43817;SDS011;29868;47.360;18.984;2023-11-21T06:47:19;26.88;;;16.23;;
43817;SDS011;29868;47.360;18.984;2023-11-21T06:49:45;25.30;;;16.88;;
43817;SDS011;29868;47.360;18.984;2023-11-21T06:52:12;24.83;;;16.48;;
43817;SDS011;29868;47.360;18.984;2023-11-21T06:54:38;25.00;;;16.77;;
43817;SDS011;29868;47.360;18.984;2023-11-21T06:57:04;24.45;;;16.75;;
43817;SDS011;29868;47.360;18.984;2023-11-21T06:59:29;25.13;;;16.50;;
43817;SDS011;29868;47.360;18.984;2023-11-21T07:01:54;25.73;;;15.80;;
43817;SDS011;29868;47.360;18.984;2023-11-21T07:04:20;21.60;;;14.93;;
43817;SDS011;29868;47.360;18.984;2023-11-21T07:06:45;21.55;;;14.40;;
43817;SDS011;29868;47.360;18.984;2023-11-21T07:09:11;23.70;;;15.82;;
43817;SDS011;29868;47.360;18.984;2023-11-21T07:11:36;22.92;;;15.65;;
43817;SDS011;29868;47.360;18.984;2023-11-21T07:14:03;21.83;;;15.70;;
43817;SDS011;29868;47.360;18.984;2023-11-21T07:16:35;22.98;;;15.93;;
43817;SDS011;29868;47.360;18.984;2023-11-21T07:19:04;22.67;;;15.60;;
43817;SDS011;29868;47.360;18.984;2023-11-21T07:21:33;22.52;;;15.90;;
43817;SDS011;29868;47.360;18.984;2023-11-21T07:24:02;20.90;;;16.30;;
43817;SDS011;29868;47.360;18.984;2023-11-21T07:26:29;24.27;;;16.83;;
43817;SDS011;29868;47.360;18.984;2023-11-21T07:28:55;23.27;;;17.45;;
43817;SDS011;29868;47.360;18.984;2023-11-21T07:31:21;20.42;;;15.50;;
43817;SDS011;29868;47.360;18.984;2023-11-21T07:33:47;22.38;;;15.90;;
43817;SDS011;29868;47.360;18.984;2023-11-21T07:36:13;25.63;;;16.38;;
43817;SDS011;29868;47.360;18.984;2023-11-21T07:38:40;24.05;;;16.15;;
43817;SDS011;29868;47.360;18.984;2023-11-21T07:41:06;22.67;;;16.23;;
43817;SDS011;29868;47.360;18.984;2023-11-21T07:43:33;23.75;;;16.63;;
43817;SDS011;29868;47.360;18.984;2023-11-21T07:46:00;22.70;;;15.88;;
43817;SDS011;29868;47.360;18.984;2023-11-21T07:48:32;25.80;;;16.40;;
43817;SDS011;29868;47.360;18.984;2023-11-21T07:50:58;24.60;;;15.90;;
43817;SDS011;29868;47.360;18.984;2023-11-21T07:53:24;25.67;;;16.13;;
43817;SDS011;29868;47.360;18.984;2023-11-21T07:55:55;24.30;;;14.30;;
43817;SDS011;29868;47.360;18.984;2023-11-21T07:58:23;20.23;;;12.95;;
43817;SDS011;29868;47.360;18.984;2023-11-21T08:00:49;17.52;;;10.88;;
43817;SDS011;29868;47.360;18.984;2023-11-21T08:03:15;15.32;;;10.15;;
43817;SDS011;29868;47.360;18.984;2023-11-21T08:05:41;17.33;;;10.40;;
43817;SDS011;29868;47.360;18.984;2023-11-21T08:08:06;15.52;;;10.88;;
43817;SDS011;29868;47.360;18.984;2023-11-21T08:10:32;17.65;;;10.85;;
43817;SDS011;29868;47.360;18.984;2023-11-21T08:12:58;19.98;;;11.35;;
43817;SDS011;29868;47.360;18.984;2023-11-21T08:15:24;17.88;;;9.88;;
43817;SDS011;29868;47.360;18.984;2023-11-21T08:17:50;15.07;;;10.05;;
43817;SDS011;29868;47.360;18.984;2023-11-21T08:20:16;15.45;;;9.93;;
43817;SDS011;29868;47.360;18.984;2023-11-21T08:22:43;15.57;;;10.10;;
43817;SDS011;29868;47.360;18.984;2023-11-21T08:25:09;15.73;;;10.20;;
43817;SDS011;29868;47.360;18.984;2023-11-21T08:27:35;14.90;;;9.48;;
43817;SDS011;29868;47.360;18.984;2023-11-21T08:30:00;13.07;;;8.85;;
43817;SDS011;29868;47.360;18.984;2023-11-21T08:32:27;13.90;;;9.57;;
43817;SDS011;29868;47.360;18.984;2023-11-21T08:34:53;13.48;;;9.10;;
43817;SDS011;29868;47.360;18.984;2023-11-21T08:37:18;14.70;;;9.85;;
43817;SDS011;29868;47.360;18.984;2023-11-21T08:39:44;15.98;;;9.48;;
43817;SDS011;29868;47.360;18.984;2023-11-21T08:42:09;18.98;;;12.43;;
43817;SDS011;29868;47.360;18.984;2023-11-21T08:44:35;17.83;;;12.07;;
43817;SDS011;29868;47.360;18.984;2023-11-21T08:47:00;18.90;;;12.73;;
43817;SDS011;29868;47.360;18.984;2023-11-21T08:49:25;18.50;;;12.48;;
43817;SDS011;29868;47.360;18.984;2023-11-21T08:51:52;19.88;;;12.57;;
43817;SDS011;29868;47.360;18.984;2023-11-21T08:54:20;20.75;;;12.27;;
43817;SDS011;29868;47.360;18.984;2023-11-21T08:56:46;18.50;;;11.07;;
43817;SDS011;29868;47.360;18.984;2023-11-21T08:59:12;22.38;;;13.25;;
43817;SDS011;29868;47.360;18.984;2023-11-21T09:01:39;19.80;;;13.10;;
43817;SDS011;29868;47.360;18.984;2023-11-21T09:04:04;20.90;;;13.65;;
43817;SDS011;29868;47.360;18.984;2023-11-21T09:06:30;19.88;;;12.48;;
43817;SDS011;29868;47.360;18.984;2023-11-21T09:08:55;20.83;;;12.35;;
43817;SDS011;29868;47.360;18.984;2023-11-21T09:11:21;19.98;;;12.65;;
43817;SDS011;29868;47.360;18.984;2023-11-21T09:13:46;22.02;;;12.50;;
43817;SDS011;29868;47.360;18.984;2023-11-21T09:16:12;20.25;;;12.30;;
43817;SDS011;29868;47.360;18.984;2023-11-21T09:18:38;18.58;;;11.90;;
43817;SDS011;29868;47.360;18.984;2023-11-21T09:21:04;18.38;;;12.38;;
43817;SDS011;29868;47.360;18.984;2023-11-21T09:23:30;18.33;;;11.43;;
43817;SDS011;29868;47.360;18.984;2023-11-21T09:25:55;17.77;;;11.82;;
43817;SDS011;29868;47.360;18.984;2023-11-21T09:28:22;18.25;;;11.77;;
43817;SDS011;29868;47.360;18.984;2023-11-21T09:30:47;19.20;;;11.50;;
43817;SDS011;29868;47.360;18.984;2023-11-21T09:33:15;17.90;;;11.88;;
43817;SDS011;29868;47.360;18.984;2023-11-21T09:35:40;16.73;;;11.55;;
43817;SDS011;29868;47.360;18.984;2023-11-21T09:38:05;20.83;;;14.30;;
43817;SDS011;29868;47.360;18.984;2023-11-21T09:40:35;22.80;;;14.00;;
43817;SDS011;29868;47.360;18.984;2023-11-21T09:43:02;20.90;;;14.18;;
43817;SDS011;29868;47.360;18.984;2023-11-21T09:45:34;25.27;;;15.27;;
43817;SDS011;29868;47.360;18.984;2023-11-21T09:48:00;52.90;;;29.17;;
43817;SDS011;29868;47.360;18.984;2023-11-21T09:50:26;92.70;;;48.13;;
43817;SDS011;29868;47.360;18.984;2023-11-21T09:55:49;30.10;;;19.17;;
43817;SDS011;29868;47.360;18.984;2023-11-21T09:58:17;19.52;;;12.90;;
43817;SDS011;29868;47.360;18.984;2023-11-21T10:00:47;18.90;;;12.18;;
43817;SDS011;29868;47.360;18.984;2023-11-21T10:03:14;21.45;;;13.35;;
43817;SDS011;29868;47.360;18.984;2023-11-21T10:05:45;15.32;;;11.27;;
43817;SDS011;29868;47.360;18.984;2023-11-21T10:08:11;16.85;;;11.35;;
43817;SDS011;29868;47.360;18.984;2023-11-21T10:10:38;15.00;;;9.95;;
43817;SDS011;29868;47.360;18.984;2023-11-21T10:13:11;17.33;;;10.35;;
43817;SDS011;29868;47.360;18.984;2023-11-21T10:15:37;14.13;;;9.23;;
43817;SDS011;29868;47.360;18.984;2023-11-21T10:18:04;13.38;;;8.52;;
43817;SDS011;29868;47.360;18.984;2023-11-21T10:20:32;13.77;;;8.95;;
43817;SDS011;29868;47.360;18.984;2023-11-21T10:23:03;17.17;;;10.75;;
43817;SDS011;29868;47.360;18.984;2023-11-21T10:25:29;16.83;;;11.18;;
43817;SDS011;29868;47.360;18.984;2023-11-21T10:27:59;17.15;;;12.88;;
43817;SDS011;29868;47.360;18.984;2023-11-21T10:30:37;18.77;;;13.85;;
43817;SDS011;29868;47.360;18.984;2023-11-21T10:33:06;18.33;;;13.23;;
43817;SDS011;29868;47.360;18.984;2023-11-21T10:35:45;19.45;;;13.70;;
43817;SDS011;29868;47.360;18.984;2023-11-21T10:38:15;16.48;;;10.23;;
43817;SDS011;29868;47.360;18.984;2023-11-21T10:40:46;15.75;;;9.85;;
43817;SDS011;29868;47.360;18.984;2023-11-21T10:43:13;13.82;;;9.45;;
43817;SDS011;29868;47.360;18.984;2023-11-21T10:45:40;14.30;;;8.27;;
43817;SDS011;29868;47.360;18.984;2023-11-21T10:48:06;13.35;;;7.22;;
43817;SDS011;29868;47.360;18.984;2023-11-21T10:50:40;13.35;;;7.53;;
43817;SDS011;29868;47.360;18.984;2023-11-21T10:53:06;9.82;;;6.75;;
43817;SDS011;29868;47.360;18.984;2023-11-21T10:55:33;12.38;;;7.68;;
43817;SDS011;29868;47.360;18.984;2023-11-21T10:58:00;11.45;;;8.18;;
43817;SDS011;29868;47.360;18.984;2023-11-21T11:00:27;11.55;;;9.10;;
43817;SDS011;29868;47.360;18.984;2023-11-21T11:02:55;12.68;;;9.35;;
43817;SDS011;29868;47.360;18.984;2023-11-21T11:05:22;11.70;;;7.78;;
43817;SDS011;29868;47.360;18.984;2023-11-21T11:07:56;10.88;;;7.60;;
43817;SDS011;29868;47.360;18.984;2023-11-21T11:10:26;12.48;;;8.45;;
43817;SDS011;29868;47.360;18.984;2023-11-21T11:12:54;12.32;;;8.70;;
43817;SDS011;29868;47.360;18.984;2023-11-21T11:15:20;15.48;;;10.00;;
43817;SDS011;29868;47.360;18.984;2023-11-21T11:17:46;13.38;;;10.20;;
43817;SDS011;29868;47.360;18.984;2023-11-21T11:20:14;14.38;;;10.20;;
43817;SDS011;29868;47.360;18.984;2023-11-21T11:22:50;13.75;;;10.02;;
43817;SDS011;29868;47.360;18.984;2023-11-21T11:25:35;15.93;;;10.18;;
43817;SDS011;29868;47.360;18.984;2023-11-21T11:31:27;16.27;;;10.80;;
43817;SDS011;29868;47.360;18.984;2023-11-21T11:34:17;15.05;;;10.45;;
43817;SDS011;29868;47.360;18.984;2023-11-21T11:42:03;23.17;;;15.20;;
43817;SDS011;29868;47.360;18.984;2023-11-21T11:47:13;24.08;;;17.98;;
43817;SDS011;29868;47.360;18.984;2023-11-21T11:55:11;14.73;;;10.82;;
43817;SDS011;29868;47.360;18.984;2023-11-21T11:57:38;14.63;;;11.00;;
43817;SDS011;29868;47.360;18.984;2023-11-21T12:00:12;15.90;;;11.55;;
43817;SDS011;29868;47.360;18.984;2023-11-21T12:02:47;14.85;;;11.15;;
43817;SDS011;29868;47.360;18.984;2023-11-21T12:05:14;20.65;;;14.27;;
43817;SDS011;29868;47.360;18.984;2023-11-21T12:07:48;23.65;;;15.82;;
43817;SDS011;29868;47.360;18.984;2023-11-21T12:10:14;17.33;;;13.50;;
43817;SDS011;29868;47.360;18.984;2023-11-21T12:12:48;16.20;;;11.40;;
43817;SDS011;29868;47.360;18.984;2023-11-21T12:15:15;17.92;;;10.88;;
43817;SDS011;29868;47.360;18.984;2023-11-21T12:17:41;15.90;;;11.07;;
43817;SDS011;29868;47.360;18.984;2023-11-21T12:20:11;16.58;;;11.52;;
43817;SDS011;29868;47.360;18.984;2023-11-21T12:22:50;22.23;;;13.70;;
43817;SDS011;29868;47.360;18.984;2023-11-21T12:25:17;17.00;;;11.55;;
43817;SDS011;29868;47.360;18.984;2023-11-21T12:27:47;15.25;;;11.43;;
43817;SDS011;29868;47.360;18.984;2023-11-21T12:30:22;14.32;;;10.63;;
43817;SDS011;29868;47.360;18.984;2023-11-21T12:32:50;17.45;;;12.70;;
43817;SDS011;29868;47.360;18.984;2023-11-21T12:35:17;22.10;;;14.80;;
43817;SDS011;29868;47.360;18.984;2023-11-21T12:37:45;23.92;;;14.30;;
43817;SDS011;29868;47.360;18.984;2023-11-21T12:40:11;24.27;;;14.52;;
43817;SDS011;29868;47.360;18.984;2023-11-21T12:42:40;21.58;;;14.10;;
43817;SDS011;29868;47.360;18.984;2023-11-21T12:47:41;15.67;;;11.07;;
43817;SDS011;29868;47.360;18.984;2023-11-21T12:50:15;17.77;;;11.38;;
43817;SDS011;29868;47.360;18.984;2023-11-21T12:52:46;18.40;;;11.52;;
43817;SDS011;29868;47.360;18.984;2023-11-21T12:55:19;18.45;;;11.50;;
43817;SDS011;29868;47.360;18.984;2023-11-21T12:57:50;19.60;;;11.80;;
43817;SDS011;29868;47.360;18.984;2023-11-21T13:00:17;18.90;;;12.20;;
43817;SDS011;29868;47.360;18.984;2023-11-21T13:02:53;20.60;;;12.50;;
43817;SDS011;29868;47.360;18.984;2023-11-21T13:05:28;19.48;;;12.77;;
43817;SDS011;29868;47.360;18.984;2023-11-21T13:07:56;21.48;;;13.68;;
43817;SDS011;29868;47.360;18.984;2023-11-21T13:10:24;22.15;;;15.57;;
43817;SDS011;29868;47.360;18.984;2023-11-21T13:12:59;29.65;;;20.85;;
43817;SDS011;29868;47.360;18.984;2023-11-21T13:15:28;37.33;;;27.60;;
43817;SDS011;29868;47.360;18.984;2023-11-21T13:17:56;40.67;;;30.00;;
43817;SDS011;29868;47.360;18.984;2023-11-21T13:20:23;35.22;;;26.23;;
43817;SDS011;29868;47.360;18.984;2023-11-21T13:25:18;89.28;;;59.33;;
43817;SDS011;29868;47.360;18.984;2023-11-21T13:27:44;66.97;;;49.88;;
43817;SDS011;29868;47.360;18.984;2023-11-21T13:30:11;39.47;;;30.77;;
43817;SDS011;29868;47.360;18.984;2023-11-21T13:32:40;30.95;;;24.95;;
43817;SDS011;29868;47.360;18.984;2023-11-21T13:35:06;29.17;;;22.42;;
43817;SDS011;29868;47.360;18.984;2023-11-21T13:37:37;29.45;;;20.17;;
43817;SDS011;29868;47.360;18.984;2023-11-21T13:40:02;26.20;;;19.70;;
43817;SDS011;29868;47.360;18.984;2023-11-21T13:42:34;24.45;;;17.35;;
43817;SDS011;29868;47.360;18.984;2023-11-21T13:45:00;27.77;;;17.60;;
43817;SDS011;29868;47.360;18.984;2023-11-21T13:47:25;37.13;;;26.30;;
43817;SDS011;29868;47.360;18.984;2023-11-21T13:49:54;34.20;;;25.98;;
43817;SDS011;29868;47.360;18.984;2023-11-21T13:52:20;30.95;;;22.90;;
43817;SDS011;29868;47.360;18.984;2023-11-21T13:54:48;26.13;;;19.55;;
43817;SDS011;29868;47.360;18.984;2023-11-21T13:57:14;22.17;;;14.20;;
43817;SDS011;29868;47.360;18.984;2023-11-21T13:59:39;22.05;;;15.77;;
43817;SDS011;29868;47.360;18.984;2023-11-21T14:02:04;22.80;;;14.05;;
43817;SDS011;29868;47.360;18.984;2023-11-21T14:04:43;19.95;;;12.73;;
43817;SDS011;29868;47.360;18.984;2023-11-21T14:07:18;20.10;;;13.30;;
43817;SDS011;29868;47.360;18.984;2023-11-21T14:09:51;20.23;;;13.52;;
43817;SDS011;29868;47.360;18.984;2023-11-21T14:12:17;22.50;;;13.38;;
43817;SDS011;29868;47.360;18.984;2023-11-21T14:14:43;20.63;;;13.93;;
43817;SDS011;29868;47.360;18.984;2023-11-21T14:17:12;21.20;;;14.30;;
43817;SDS011;29868;47.360;18.984;2023-11-21T14:19:38;20.00;;;14.13;;
43817;SDS011;29868;47.360;18.984;2023-11-21T14:22:08;24.08;;;14.80;;
43817;SDS011;29868;47.360;18.984;2023-11-21T14:24:34;25.05;;;14.48;;
43817;SDS011;29868;47.360;18.984;2023-11-21T14:27:00;26.50;;;16.80;;
43817;SDS011;29868;47.360;18.984;2023-11-21T14:29:26;24.00;;;16.75;;
43817;SDS011;29868;47.360;18.984;2023-11-21T14:31:52;23.33;;;16.75;;
43817;SDS011;29868;47.360;18.984;2023-11-21T14:34:21;27.23;;;16.40;;
43817;SDS011;29868;47.360;18.984;2023-11-21T14:36:47;25.33;;;15.43;;